Time;durP1;ratioP1;P1;durP2;ratioP2;P2;SDS_P1;SDS_P2;PMS_P1;PMS_P2;Temp;Humidity;BMP_temperature;BMP_pressure;BME280_temperature;BME280_humidity;BME280_pressure;Samples;Min_cycle;Max_cycle;Signal;HPM_P1;HPM_P2
2022/07/05 09:37:04;;;;;;;8.73;4.75;;;;;;;30.67;33.66;94709.50;3501544;28;21270;-65
2022/07/05 09:39:06;;;;;;;8.48;5.25;;;;;;;30.72;33.74;94712.19;4150012;28;20052;-64
2022/07/05 09:41:11;;;;;;;7.85;4.85;;;;;;;30.84;34.06;94701.75;4140902;28;20053;-67
2022/07/05 09:43:18;;;;;;;6.68;4.53;;;;;;;30.87;33.37;94697.72;4142728;28;20148;-68
2022/07/05 09:45:23;;;;;;;7.75;4.97;;;;;;;30.77;32.92;94707.50;4146933;28;20054;-67
2022/07/05 09:47:29;;;;;;;8.70;4.63;;;;;;;30.60;33.51;94701.75;4145004;28;20054;-66
2022/07/05 09:49:30;;;;;;;8.02;4.95;;;;;;;30.49;34.16;94702.94;4157122;28;20076;-66
2022/07/05 09:51:54;;;;;;;14.95;4.80;;;;;;;30.60;33.72;94697.13;4145101;28;20050;-69
2022/07/05 09:53:58;;;;;;;7.47;4.40;;;;;;;30.13;33.87;94689.69;4159209;28;20050;-68
2022/07/05 09:56:03;;;;;;;9.35;5.13;;;;;;;30.09;33.66;94688.63;4147811;28;20127;-66
2022/07/05 09:58:05;;;;;;;11.30;4.73;;;;;;;30.33;33.49;94689.56;4133956;28;20054;-66
2022/07/05 10:00:07;;;;;;;8.00;4.72;;;;;;;30.53;33.84;94680.44;4141757;28;20043;-67
2022/07/05 10:02:09;;;;;;;6.85;5.30;;;;;;;30.62;33.85;94683.34;4139359;28;20566;-66
2022/07/05 11:40:50;;;;;;;8.68;4.45;;;;;;;32.62;32.43;94600.13;4125702;28;20069;-69
2022/07/05 11:43:02;;;;;;;5.22;4.70;;;;;;;32.70;32.78;94608.66;4137666;28;20469;-65
2022/07/05 11:45:05;;;;;;;6.40;4.68;;;;;;;32.74;32.35;94601.53;4146793;28;20043;-66
2022/07/05 11:47:09;;;;;;;6.60;4.60;;;;;;;32.71;32.60;94594.00;4140253;28;20049;-66
2022/07/05 11:49:11;;;;;;;11.02;5.10;;;;;;;32.73;32.20;94589.88;4131080;28;20133;-66
2022/07/05 11:51:14;;;;;;;6.88;5.20;;;;;;;32.72;32.58;94590.19;4144284;28;20046;-66
2022/07/05 11:53:25;;;;;;;12.52;5.35;;;;;;;32.87;31.25;94589.06;4131588;28;20061;-67
2022/07/05 11:55:54;;;;;;;6.13;4.85;;;;;;;32.86;32.44;94582.84;4143150;28;20111;-68
2022/07/05 11:57:57;;;;;;;7.57;5.07;;;;;;;32.93;32.50;94572.38;4136016;28;20045;-65
2022/07/05 11:59:59;;;;;;;6.13;4.82;;;;;;;32.97;31.97;94576.09;4155176;28;20074;-66
2022/07/05 12:02:01;;;;;;;8.63;5.20;;;;;;;33.03;31.72;94574.88;4135620;28;20133;-64
2022/07/05 12:04:03;;;;;;;15.95;4.78;;;;;;;33.08;31.53;94570.47;4131334;28;20505;-66
2022/07/05 12:06:15;;;;;;;9.90;4.82;;;;;;;33.00;30.98;94570.06;4131367;28;20057;-65
2022/07/05 12:08:24;;;;;;;11.88;4.88;;;;;;;33.05;30.83;94572.66;4145663;28;20180;-66
2022/07/05 12:13:08;;;;;;;6.88;5.00;;;;;;;33.15;30.69;94560.84;4142003;28;20429;-66
2022/07/05 12:15:18;;;;;;;9.48;4.63;;;;;;;33.20;30.77;94563.44;4141934;28;20161;-66
2022/07/05 12:17:20;;;;;;;5.85;5.22;;;;;;;33.19;30.55;94556.41;4132215;28;20426;-68
2022/07/05 12:19:27;;;;;;;9.95;5.05;;;;;;;33.11;30.49;94556.31;4136854;28;20054;-67
2022/07/05 12:21:30;;;;;;;;;;;;;;;33.16;31.18;94561.63;4141360;28;20057;-67
2022/07/05 12:23:32;;;;;;;6.28;4.82;;;;;;;33.16;31.38;94557.00;4133513;28;19972;-66
2022/07/05 12:25:35;;;;;;;7.85;5.45;;;;;;;33.18;30.82;94545.84;4129218;28;20046;-69
2022/07/05 12:27:39;;;;;;;8.40;4.78;;;;;;;33.24;30.90;94547.34;4129743;28;20104;-68
2022/07/05 12:29:41;;;;;;;7.78;5.15;;;;;;;33.31;30.54;94547.72;4133939;28;20041;-67
2022/07/05 12:32:02;;;;;;;7.60;5.07;;;;;;;33.32;30.26;94554.75;4142327;28;20054;-68
2022/07/05 12:34:21;;;;;;;8.43;5.30;;;;;;;33.29;30.38;94552.63;4140578;28;20054;-67
2022/07/05 12:36:29;;;;;;;13.25;5.20;;;;;;;33.29;31.40;94541.00;4129421;28;20453;-66
2022/07/05 12:38:31;;;;;;;7.20;4.70;;;;;;;33.28;30.52;94547.50;4129213;28;20058;-66
2022/07/05 12:40:34;;;;;;;6.72;4.70;;;;;;;33.29;30.92;94544.50;4128313;28;20465;-67
2022/07/05 12:42:40;;;;;;;7.70;5.32;;;;;;;33.33;30.90;94544.69;4140173;28;20051;-67
2022/07/05 12:44:42;;;;;;;7.78;4.85;;;;;;;33.26;30.45;94545.13;4128682;28;20054;-66
2022/07/05 12:46:45;;;;;;;7.28;4.70;;;;;;;33.23;30.75;94534.84;4135278;28;20084;-67
2022/07/05 12:48:53;;;;;;;9.32;4.68;;;;;;;33.30;30.25;94535.25;4128968;28;20069;-68
2022/07/05 12:50:55;;;;;;;8.07;5.03;;;;;;;33.37;29.99;94540.25;4143041;28;20053;-66
2022/07/05 12:58:04;;;;;;;9.00;4.82;;;;;;;33.29;30.24;94522.00;4144499;28;20057;-67
2022/07/05 13:00:08;;;;;;;14.95;4.90;;;;;;;33.31;29.96;94527.91;4137140;28;20413;-67
2022/07/05 13:02:13;;;;;;;10.23;5.00;;;;;;;33.27;30.58;94516.84;4139336;28;20073;-66
2022/07/05 13:04:16;;;;;;;6.57;4.20;;;;;;;33.28;30.40;94514.94;4127812;28;20160;-66
2022/07/05 13:06:18;;;;;;;8.57;4.70;;;;;;;33.19;30.03;94514.88;4144027;28;20045;-67
2022/07/05 13:08:27;;;;;;;6.70;4.90;;;;;;;33.25;30.92;94516.34;4144482;28;20093;-64
2022/07/05 13:10:31;;;;;;;11.55;5.47;;;;;;;33.29;30.71;94505.69;4138665;28;20049;-65
2022/07/05 13:12:41;;;;;;;7.38;4.95;;;;;;;33.21;30.95;94505.34;4130727;28;20050;-66
2022/07/05 13:14:44;;;;;;;7.70;5.00;;;;;;;33.17;30.90;94500.78;4130987;28;20131;-67
2022/07/05 13:16:46;;;;;;;6.90;5.07;;;;;;;33.21;30.99;94504.50;4137839;28;20050;-67
2022/07/05 13:18:49;;;;;;;12.30;5.63;;;;;;;33.22;31.28;94497.97;4126523;28;20609;-67
2022/07/05 13:20:51;;;;;;;5.22;4.72;;;;;;;33.29;30.91;94501.06;4135178;28;20049;-66
2022/07/05 13:22:53;;;;;;;9.25;5.00;;;;;;;33.39;30.62;94492.69;4144710;28;20057;-66
2022/07/05 13:24:55;;;;;;;6.20;4.80;;;;;;;33.43;30.61;94493.69;4144389;28;20050;-66
2022/07/05 13:26:57;;;;;;;6.82;4.57;;;;;;;33.45;31.13;94496.88;4130704;28;20050;-66
2022/07/05 13:28:59;;;;;;;16.00;5.32;;;;;;;33.54;30.89;94498.88;4142975;28;20046;-66
2022/07/05 13:31:01;;;;;;;6.00;5.13;;;;;;;33.60;30.75;94492.19;4136528;28;20105;-66
2022/07/05 13:33:03;;;;;;;7.57;5.32;;;;;;;33.53;30.41;94487.19;4126372;28;20405;-65
2022/07/05 13:35:05;;;;;;;8.57;5.55;;;;;;;33.65;30.28;94486.66;4128855;28;20462;-70
2022/07/05 13:37:07;;;;;;;5.82;5.15;;;;;;;33.76;30.62;94488.00;4142034;28;20477;-64
2022/07/05 13:39:08;;;;;;;6.10;5.20;;;;;;;33.82;30.58;94486.75;4133204;28;20453;-68
2022/07/05 13:41:10;;;;;;;8.85;5.03;;;;;;;33.79;30.05;94486.56;4135746;28;20066;-66
2022/07/05 13:43:12;;;;;;;17.58;5.68;;;;;;;33.80;30.53;94488.19;4138382;28;20610;-64
2022/07/05 13:45:15;;;;;;;6.70;4.85;;;;;;;33.81;30.49;94485.13;4144713;28;20058;-66
2022/07/05 13:47:16;;;;;;;7.70;5.53;;;;;;;33.82;30.22;94486.75;4144019;28;20108;-67
2022/07/05 13:49:19;;;;;;;5.47;4.90;;;;;;;33.78;30.57;94477.63;4140646;28;20054;-67
2022/07/05 13:51:21;;;;;;;;;;;;;;;33.76;30.54;94481.78;4138098;28;20050;-65
2022/07/05 13:53:30;;;;;;;9.80;4.85;;;;;;;33.71;30.11;94474.56;4135979;28;20005;-67
2022/07/05 13:55:32;;;;;;;6.93;4.47;;;;;;;33.70;30.57;94478.38;4128192;28;20089;-68
2022/07/05 13:57:34;;;;;;;8.27;5.32;;;;;;;33.70;30.75;94474.84;4143615;28;20058;-66
2022/07/05 13:59:35;;;;;;;5.82;4.72;;;;;;;33.66;30.52;94469.25;4131161;28;20050;-66
2022/07/05 14:01:37;;;;;;;7.75;5.63;;;;;;;33.64;30.86;94469.56;4137604;28;20061;-66
2022/07/05 14:03:39;;;;;;;8.40;4.65;;;;;;;33.67;30.89;94465.41;4125677;28;20077;-65
2022/07/05 14:05:44;;;;;;;7.35;4.95;;;;;;;33.63;31.61;94464.44;4140065;28;20124;-67
2022/07/05 14:07:46;;;;;;;5.70;4.60;;;;;;;33.65;31.37;94457.56;4142346;28;20050;-65
2022/07/05 14:09:48;;;;;;;5.63;5.13;;;;;;;33.70;31.62;94450.41;4128082;28;20046;-67
2022/07/05 14:11:50;;;;;;;8.75;5.25;;;;;;;33.68;31.50;94448.00;4135105;28;20499;-66
2022/07/05 14:13:54;;;;;;;7.20;4.53;;;;;;;33.74;32.01;94454.91;4143540;28;20136;-66
2022/07/05 14:15:56;;;;;;;7.45;4.50;;;;;;;33.71;31.67;94446.56;4144725;28;20564;-66
2022/07/05 14:18:02;;;;;;;10.95;4.45;;;;;;;33.54;31.42;94444.56;4126863;28;20092;-66
2022/07/05 14:20:05;;;;;;;5.78;4.45;;;;;;;33.36;31.15;94444.41;4142711;28;20050;-65
2022/07/05 14:22:07;;;;;;;8.60;4.63;;;;;;;33.12;31.71;94442.00;4141627;28;20050;-68
2022/07/05 14:24:09;;;;;;;7.00;4.30;;;;;;;32.90;31.76;94444.69;4127321;28;20058;-67
2022/07/05 14:26:11;;;;;;;11.55;4.88;;;;;;;32.77;32.05;94449.84;4128190;28;20058;-66
2022/07/05 14:28:13;;;;;;;7.63;5.20;;;;;;;32.63;32.45;94447.16;4135281;28;20062;-66
2022/07/05 14:30:15;;;;;;;6.60;4.60;;;;;;;32.52;32.15;94451.16;4141903;28;20054;-65
2022/07/05 14:32:16;;;;;;;7.05;4.95;;;;;;;32.39;32.82;94446.56;4129665;28;20100;-68
2022/07/05 14:34:18;;;;;;;7.90;5.10;;;;;;;32.34;32.86;94441.25;4136913;28;20093;-66
2022/07/05 14:36:20;;;;;;;9.93;4.60;;;;;;;32.32;33.26;94443.47;4147270;28;20059;-66
2022/07/05 14:38:22;;;;;;;10.27;4.88;;;;;;;32.31;33.17;94447.25;4146801;28;20058;-65
2022/07/05 14:40:24;;;;;;;8.70;4.88;;;;;;;32.29;33.51;94449.47;4132544;28;20116;-67
2022/07/05 14:42:26;;;;;;;9.40;5.22;;;;;;;32.26;33.56;94448.16;4142548;28;20394;-67
2022/07/05 14:44:28;;;;;;;6.30;4.88;;;;;;;32.17;33.76;94445.38;4137861;28;20057;-66
2022/07/05 14:46:30;;;;;;;8.30;5.72;;;;;;;32.11;34.01;94449.28;4146931;28;20097;-66
2022/07/05 14:48:32;;;;;;;6.72;5.90;;;;;;;32.02;34.21;94446.47;4145254;28;20154;-65
2022/07/05 14:50:33;;;;;;;10.27;5.70;;;;;;;31.94;34.29;94439.00;4143590;28;20042;-65
2022/07/05 14:52:35;;;;;;;9.15;5.60;;;;;;;31.94;34.41;94440.91;4158544;28;20053;-66
2022/07/05 14:54:37;;;;;;;7.38;5.18;;;;;;;31.95;34.30;94429.00;4134880;28;20045;-64
2022/07/05 14:56:39;;;;;;;8.05;4.57;;;;;;;31.99;34.28;94436.25;4153072;28;20412;-65
2022/07/05 14:58:41;;;;;;;7.00;5.00;;;;;;;32.12;34.57;94423.81;4150653;28;20062;-66
2022/07/05 15:00:43;;;;;;;8.45;4.70;;;;;;;32.30;33.74;94429.41;4130748;28;20049;-66
2022/07/05 15:02:45;;;;;;;10.38;4.80;;;;;;;32.53;33.72;94425.69;4128516;28;20169;-68
2022/07/05 15:04:46;;;;;;;12.13;4.88;;;;;;;32.68;33.39;94421.06;4134491;28;20038;-65
2022/07/05 15:06:48;;;;;;;10.50;4.72;;;;;;;32.80;32.85;94413.16;4146771;28;20128;-69
2022/07/05 15:08:50;;;;;;;10.10;4.45;;;;;;;32.95;32.93;94406.56;4141992;28;20074;-66
2022/07/05 15:10:59;;;;;;;8.93;4.93;;;;;;;33.13;32.55;94410.28;4144351;28;20457;-68
2022/07/05 15:13:01;;;;;;;10.85;4.90;;;;;;;33.19;33.36;94407.13;4130178;28;20058;-66
2022/07/05 15:15:04;;;;;;;14.88;5.00;;;;;;;33.33;32.23;94415.19;4135390;28;20053;-66
2022/07/05 15:17:05;;;;;;;5.22;4.30;;;;;;;33.28;32.37;94401.75;4138470;28;20058;-65
2022/07/05 15:19:08;;;;;;;6.20;4.47;;;;;;;33.30;31.87;94410.38;4139619;28;20046;-66
2022/07/05 15:21:10;;;;;;;5.78;4.57;;;;;;;33.41;31.64;94406.28;4134776;28;20082;-65
2022/07/05 15:23:12;;;;;;;10.50;5.15;;;;;;;33.56;31.61;94407.81;4130727;28;20058;-67
2022/07/05 15:25:14;;;;;;;4.68;4.18;;;;;;;33.66;31.46;94412.19;4130122;28;20081;-67
2022/07/05 15:27:17;;;;;;;6.50;4.70;;;;;;;33.72;31.54;94418.31;4136190;28;20048;-66
2022/07/05 15:29:20;;;;;;;4.82;4.20;;;;;;;33.61;31.59;94415.06;4136382;28;20100;-65
2022/07/05 15:31:22;;;;;;;5.72;4.47;;;;;;;33.68;32.03;94423.56;4131036;28;20051;-67
2022/07/05 15:33:29;;;;;;;8.07;3.90;;;;;;;33.72;31.70;94413.66;4127582;28;20061;-67
2022/07/05 15:35:31;;;;;;;11.85;4.60;;;;;;;33.77;31.43;94413.56;4129443;28;20486;-67
2022/07/05 15:37:33;;;;;;;7.03;4.47;;;;;;;33.77;30.86;94418.16;4130410;28;20113;-65
2022/07/05 15:39:57;;;;;;;5.55;4.28;;;;;;;33.88;31.26;94422.22;4128239;28;20050;-67
2022/07/05 15:42:00;;;;;;;7.53;4.43;;;;;;;34.04;31.26;94419.88;4132285;28;20058;-64
2022/07/05 15:44:03;;;;;;;6.63;4.45;;;;;;;34.12;30.93;94415.63;4142281;28;20046;-66
2022/07/05 15:46:05;;;;;;;8.55;5.32;;;;;;;34.01;31.09;94418.59;4136089;28;20493;-67
2022/07/05 15:48:07;;;;;;;8.68;4.35;;;;;;;34.01;31.17;94425.94;4144252;28;20473;-68
2022/07/05 15:50:10;;;;;;;6.70;4.63;;;;;;;34.02;31.16;94424.84;4144686;28;20046;-66
2022/07/05 15:52:12;;;;;;;5.53;3.92;;;;;;;34.07;30.99;94443.69;4145562;28;20537;-65
2022/07/05 15:54:14;;;;;;;5.22;4.20;;;;;;;34.15;31.28;94434.81;4134019;28;20204;-69
2022/07/05 15:56:16;;;;;;;6.63;4.03;;;;;;;34.09;31.55;94441.47;4147697;28;20084;-68
2022/07/05 15:58:17;;;;;;;6.55;4.60;;;;;;;33.96;31.80;94442.38;4136475;28;20051;-66
2022/07/05 16:00:19;;;;;;;5.80;4.55;;;;;;;33.91;32.01;94440.63;4129734;28;20100;-66
2022/07/05 16:02:23;;;;;;;8.40;5.03;;;;;;;33.94;31.84;94441.91;4127850;28;20050;-67
2022/07/05 16:04:31;;;;;;;5.97;4.53;;;;;;;33.93;31.86;94445.75;4130312;28;20330;-68
2022/07/05 16:06:33;;;;;;;8.77;4.55;;;;;;;33.82;31.43;94432.41;4136150;28;20152;-66
2022/07/05 16:08:35;;;;;;;7.82;4.88;;;;;;;33.72;32.14;94434.59;4137592;28;20054;-66
2022/07/05 16:10:37;;;;;;;9.43;4.53;;;;;;;33.47;32.08;94436.81;4129474;28;20051;-67
2022/07/05 16:12:38;;;;;;;8.82;4.78;;;;;;;33.16;32.66;94425.94;4128470;28;20054;-66
2022/07/05 16:14:40;;;;;;;9.18;4.63;;;;;;;32.91;32.82;94427.28;4139225;28;20053;-65
2022/07/05 16:16:42;;;;;;;7.90;4.45;;;;;;;32.66;33.37;94431.41;4129140;28;20089;-64
2022/07/05 16:18:47;;;;;;;6.45;4.05;;;;;;;32.50;33.66;94436.31;4132855;28;20335;-65
2022/07/05 16:20:49;;;;;;;6.72;4.53;;;;;;;32.32;34.06;94440.75;4137129;28;20165;-68
2022/07/05 16:23:01;;;;;;;6.90;4.38;;;;;;;32.12;34.02;94442.78;4127431;28;20108;-66
2022/07/05 16:25:03;;;;;;;8.07;5.00;;;;;;;31.99;34.07;94443.56;4132492;28;20750;-66
2022/07/05 16:27:05;;;;;;;11.65;4.82;;;;;;;31.88;34.14;94442.94;4132816;28;20489;-67
2022/07/05 16:29:07;;;;;;;7.40;4.65;;;;;;;31.83;34.58;94440.31;4140846;28;20050;-65
2022/07/05 16:31:10;;;;;;;6.43;4.88;;;;;;;31.78;35.12;94445.81;4144226;28;20114;-67
2022/07/05 16:33:12;;;;;;;6.40;5.30;;;;;;;31.72;34.96;94445.09;4129813;28;20089;-66
2022/07/05 16:35:14;;;;;;;10.80;5.25;;;;;;;31.72;35.26;94457.84;4138626;28;20052;-67
2022/07/05 16:37:16;;;;;;;8.73;5.13;;;;;;;31.72;35.27;94463.25;4132829;28;20088;-69
2022/07/05 16:39:18;;;;;;;8.05;5.10;;;;;;;31.71;34.67;94451.63;4128931;28;20076;-68
2022/07/05 16:41:20;;;;;;;8.35;4.93;;;;;;;31.74;34.48;94448.31;4141588;28;20084;-67
2022/07/05 16:43:22;;;;;;;10.73;5.28;;;;;;;31.76;34.40;94443.41;4132862;28;20425;-67
2022/07/05 16:45:24;;;;;;;7.07;4.50;;;;;;;31.89;34.78;94444.53;4132144;28;20624;-66
2022/07/05 16:47:26;;;;;;;8.15;4.78;;;;;;;32.09;34.28;94443.34;4129843;28;20050;-66
2022/07/05 16:49:28;;;;;;;7.25;4.50;;;;;;;32.21;34.31;94451.00;4142297;28;20065;-66
2022/07/05 16:51:29;;;;;;;8.32;4.88;;;;;;;32.27;34.26;94452.50;4144844;28;20054;-67
2022/07/05 16:53:34;;;;;;;7.97;4.57;;;;;;;32.38;33.88;94453.09;4144630;28;20054;-67
2022/07/05 16:55:36;;;;;;;8.43;5.00;;;;;;;32.39;34.06;94447.34;4131284;28;20054;-66
2022/07/05 16:57:38;;;;;;;7.75;5.50;;;;;;;32.42;34.25;94446.75;4154402;28;20580;-65
2022/07/05 16:59:40;;;;;;;6.70;4.40;;;;;;;32.38;34.00;94444.97;4128669;28;20046;-66
2022/07/05 17:01:42;;;;;;;7.13;4.47;;;;;;;32.30;34.34;94435.63;4128486;28;20052;-66
2022/07/05 17:03:47;;;;;;;7.68;4.88;;;;;;;32.18;34.26;94429.91;4127296;28;20046;-67
2022/07/05 17:05:50;;;;;;;7.53;4.63;;;;;;;32.07;34.21;94432.00;4130465;28;20057;-68
2022/07/05 17:07:52;;;;;;;13.57;5.15;;;;;;;32.03;34.06;94431.03;4130625;28;20327;-67
2022/07/05 17:09:54;;;;;;;7.65;5.10;;;;;;;31.95;34.50;94434.41;4132280;28;20057;-65
2022/07/05 17:11:56;;;;;;;9.45;5.13;;;;;;;31.89;34.05;94432.91;4136521;28;20050;-67
2022/07/05 17:13:58;;;;;;;9.73;4.57;;;;;;;31.80;34.18;94422.75;4144762;28;20470;-66
2022/07/05 17:16:00;;;;;;;7.85;4.80;;;;;;;31.68;34.50;94427.84;4132005;28;20068;-67
2022/07/05 17:18:01;;;;;;;9.75;5.20;;;;;;;31.57;34.83;94426.44;4140400;28;20133;-66
2022/07/05 17:20:04;;;;;;;11.25;4.60;;;;;;;31.41;34.75;94426.66;4128452;28;20108;-65
2022/07/05 17:22:06;;;;;;;7.38;4.63;;;;;;;31.26;34.66;94421.50;4133352;28;20038;-68
2022/07/05 17:24:08;;;;;;;6.38;4.97;;;;;;;31.11;34.97;94424.47;4144481;28;20104;-67
2022/07/05 17:26:13;;;;;;;8.68;4.78;;;;;;;30.99;35.08;94431.13;4132157;28;20417;-66
2022/07/05 17:28:15;;;;;;;11.68;5.00;;;;;;;30.86;34.92;94426.47;4126395;28;20054;-66
2022/07/05 17:30:17;;;;;;;9.95;5.72;;;;;;;30.72;35.37;94429.09;4128569;28;20049;-68
2022/07/05 17:32:37;;;;;;;8.35;5.25;;;;;;;30.53;35.31;94423.66;4130681;28;20058;-66
2022/07/05 17:34:40;;;;;;;8.23;4.63;;;;;;;30.37;35.88;94427.66;4130772;28;20129;-67
2022/07/05 17:36:42;;;;;;;8.20;5.22;;;;;;;30.24;35.87;94426.44;4131322;28;20053;-65
2022/07/05 17:38:45;;;;;;;7.65;4.45;;;;;;;30.14;36.02;94424.69;4135784;28;20049;-65
2022/07/05 17:40:48;;;;;;;9.07;4.72;;;;;;;29.99;36.29;94422.97;4128001;28;20117;-67
2022/07/05 17:42:49;;;;;;;8.90;4.43;;;;;;;29.89;36.33;94420.38;4135288;28;20069;-65
2022/07/05 17:44:51;;;;;;;6.15;5.07;;;;;;;29.82;36.65;94421.81;4142171;28;20054;-66
2022/07/05 17:46:54;;;;;;;7.80;5.07;;;;;;;29.73;36.60;94424.34;4128788;28;20054;-66
2022/07/05 17:48:56;;;;;;;10.35;5.22;;;;;;;29.68;36.51;94419.75;4137285;28;20061;-68
2022/07/05 17:50:58;;;;;;;7.10;5.20;;;;;;;29.61;36.59;94421.97;4142675;28;20436;-69
2022/07/05 17:53:00;;;;;;;6.95;5.00;;;;;;;29.53;36.67;94415.31;4138954;28;20130;-66
2022/07/05 17:55:02;;;;;;;9.38;4.53;;;;;;;29.51;36.74;94413.97;4129094;28;20068;-66
2022/07/05 17:57:05;;;;;;;7.30;5.10;;;;;;;29.49;36.80;94424.25;4144757;28;20065;-66
2022/07/05 17:59:06;;;;;;;6.40;4.70;;;;;;;29.45;37.17;94415.94;4139208;28;20054;-69
2022/07/05 18:01:10;;;;;;;6.68;4.68;;;;;;;29.42;36.64;94418.41;4130430;28;20042;-64
2022/07/05 18:03:12;;;;;;;6.53;4.80;;;;;;;29.37;37.26;94414.66;4142950;28;20365;-65
2022/07/05 18:05:15;;;;;;;10.07;5.30;;;;;;;29.32;37.22;94420.09;4142913;28;20049;-66
2022/07/05 18:07:17;;;;;;;10.63;5.13;;;;;;;29.25;37.46;94414.22;4136936;28;20065;-66
2022/07/05 18:09:18;;;;;;;10.68;4.60;;;;;;;29.23;37.22;94410.19;4130593;28;20095;-65
2022/07/05 18:11:21;;;;;;;10.50;5.85;;;;;;;29.18;37.53;94406.44;4144698;28;20061;-66
2022/07/05 18:13:23;;;;;;;14.82;5.75;;;;;;;29.12;37.19;94407.56;4136499;28;20057;-66
2022/07/05 18:15:26;;;;;;;9.27;5.50;;;;;;;29.12;37.28;94401.38;4147431;28;20096;-65
2022/07/05 18:17:28;;;;;;;10.88;5.40;;;;;;;29.08;37.57;94403.84;4135659;28;20050;-65
2022/07/05 18:19:30;;;;;;;11.32;5.65;;;;;;;29.05;37.49;94403.59;4140865;28;20084;-64
2022/07/05 18:21:32;;;;;;;8.25;6.55;;;;;;;28.95;37.85;94397.19;4160657;28;20041;-65
2022/07/05 18:23:34;;;;;;;10.85;5.50;;;;;;;28.91;37.81;94398.00;4147133;28;20081;-66
2022/07/05 18:25:39;;;;;;;10.60;5.95;;;;;;;28.89;37.64;94405.56;4141610;28;20390;-67
2022/07/05 18:27:41;;;;;;;9.52;5.18;;;;;;;28.91;37.79;94398.84;4139335;28;20382;-66
2022/07/05 18:29:44;;;;;;;8.38;5.05;;;;;;;28.91;37.61;94411.50;4147185;28;20046;-65
2022/07/05 18:31:45;;;;;;;6.75;5.93;;;;;;;28.90;37.71;94404.50;4145779;28;20100;-65
2022/07/05 18:33:49;;;;;;;6.80;5.43;;;;;;;28.85;37.85;94405.34;4142525;28;20050;-66
2022/07/05 18:35:50;;;;;;;11.35;6.15;;;;;;;28.71;38.16;94409.75;4137085;28;20045;-67
2022/07/05 18:37:52;;;;;;;10.00;5.57;;;;;;;28.70;38.02;94413.56;4147148;28;20120;-65
2022/07/05 18:39:54;;;;;;;12.52;6.00;;;;;;;28.63;38.08;94423.81;4135522;28;20054;-67
2022/07/05 18:41:56;;;;;;;8.52;5.38;;;;;;;28.57;38.34;94421.16;4143660;28;20053;-67
2022/07/05 18:43:57;;;;;;;9.13;5.38;;;;;;;28.51;38.45;94427.66;4130089;28;20054;-66
2022/07/05 18:46:00;;;;;;;9.77;5.80;;;;;;;28.53;38.73;94422.00;4130013;28;20133;-67
2022/07/05 18:48:01;;;;;;;9.95;6.00;;;;;;;28.51;38.63;94419.59;4129965;28;20133;-68
2022/07/05 18:50:05;;;;;;;10.45;5.13;;;;;;;28.49;38.53;94412.88;4139743;28;20049;-65
2022/07/05 18:52:06;;;;;;;9.50;5.53;;;;;;;28.50;38.35;94425.25;4135128;28;20073;-66
2022/07/05 18:54:10;;;;;;;9.77;5.65;;;;;;;28.50;38.63;94426.06;4129842;28;20058;-66
2022/07/05 18:56:12;;;;;;;8.60;5.80;;;;;;;28.52;38.47;94423.06;4150276;28;20440;-66
2022/07/05 18:58:23;;;;;;;9.57;5.82;;;;;;;28.49;38.56;94421.75;4154446;28;20049;-67
2022/07/05 19:00:25;;;;;;;9.23;5.93;;;;;;;28.47;38.92;94423.88;4135839;28;20054;-65
2022/07/05 19:02:27;;;;;;;8.73;5.57;;;;;;;28.47;38.59;94431.16;4128742;28;20446;-65
2022/07/05 19:04:29;;;;;;;8.13;5.43;;;;;;;28.46;38.47;94440.31;4129680;28;20051;-66
2022/07/05 19:13:41;;;;;;;9.77;5.60;;;;;;;28.34;39.26;94456.81;4136703;28;20141;-65
2022/07/05 19:15:43;;;;;;;8.98;5.18;;;;;;;28.34;39.24;94475.69;4145231;28;20152;-66
2022/07/05 19:17:46;;;;;;;10.27;5.30;;;;;;;28.35;39.58;94477.28;4143683;28;20583;-68
2022/07/05 19:19:48;;;;;;;8.40;5.87;;;;;;;28.30;39.69;94472.72;4130615;28;20313;-66
2022/07/05 19:21:49;;;;;;;7.93;6.07;;;;;;;28.29;39.54;94479.19;4130800;28;20113;-66
2022/07/05 19:23:51;;;;;;;11.13;5.60;;;;;;;28.33;39.58;94482.13;4130412;28;20054;-66
2022/07/05 19:25:53;;;;;;;11.60;6.25;;;;;;;28.35;39.90;94478.09;4131070;28;20046;-65
2022/07/05 19:27:55;;;;;;;9.55;5.80;;;;;;;28.36;39.82;94484.28;4130845;28;20103;-66
2022/07/05 19:30:06;;;;;;;9.10;5.68;;;;;;;28.33;39.74;94492.91;4144270;28;20088;-68
2022/07/05 19:32:08;;;;;;;8.40;5.13;;;;;;;28.34;39.61;94492.63;4147014;28;20104;-65
2022/07/05 19:34:10;;;;;;;10.68;5.40;;;;;;;28.36;39.87;94490.47;4138070;28;20284;-65
2022/07/05 19:36:12;;;;;;;8.95;5.32;;;;;;;28.37;39.94;94491.28;4131496;28;20112;-68
2022/07/05 19:38:13;;;;;;;11.52;5.20;;;;;;;28.39;39.69;94498.03;4130389;28;20101;-66
2022/07/05 19:40:15;;;;;;;7.47;5.10;;;;;;;28.39;40.21;94491.81;4129471;28;20460;-67
2022/07/05 19:42:17;;;;;;;10.48;5.53;;;;;;;28.39;40.41;94502.59;4132322;28;20520;-64
2022/07/05 19:44:19;;;;;;;9.50;5.80;;;;;;;28.34;40.11;94489.94;4143551;28;20402;-66
2022/07/05 19:46:22;;;;;;;8.07;5.75;;;;;;;28.37;40.11;94491.28;4136914;28;20482;-67
2022/07/05 19:48:24;;;;;;;9.23;6.28;;;;;;;28.34;40.63;94492.63;4145002;28;20140;-66
2022/07/05 19:50:29;;;;;;;11.30;5.32;;;;;;;28.39;40.36;94494.50;4142878;28;20097;-67
2022/07/05 19:52:31;;;;;;;9.20;5.95;;;;;;;28.38;40.21;94498.28;4145694;28;20486;-66
2022/07/05 19:54:33;;;;;;;9.93;5.40;;;;;;;28.39;40.53;94518.75;4145243;28;20160;-64
2022/07/05 19:56:35;;;;;;;9.48;5.50;;;;;;;28.25;40.67;94537.41;4152189;28;20057;-67
2022/07/05 19:58:36;;;;;;;10.95;6.25;;;;;;;28.08;41.11;94536.91;4148901;28;20049;-65
2022/07/05 20:00:39;;;;;;;10.80;5.78;;;;;;;27.61;42.97;94546.88;4139099;28;20058;-66
2022/07/05 20:02:41;;;;;;;14.38;6.63;;;;;;;27.26;44.17;94548.47;4127697;28;20058;-66
2022/07/05 20:04:43;;;;;;;9.80;6.00;;;;;;;26.43;47.01;94551.13;4142341;28;20054;-67
2022/07/05 20:06:45;;;;;;;8.57;5.97;;;;;;;25.70;48.95;94538.31;4131947;28;20130;-65
2022/07/05 20:08:47;;;;;;;12.15;6.40;;;;;;;25.41;49.48;94556.63;4129450;28;20121;-64
2022/07/05 20:10:49;;;;;;;9.90;6.07;;;;;;;25.45;49.78;94563.09;4129468;28;20062;-64
2022/07/05 20:12:50;;;;;;;9.20;6.10;;;;;;;25.69;49.09;94560.88;4128186;28;20309;-68
2022/07/05 20:14:52;;;;;;;12.68;6.80;;;;;;;25.93;48.98;94569.38;4132474;28;20420;-66
2022/07/05 20:16:54;;;;;;;7.30;6.10;;;;;;;26.07;49.00;94588.53;4145961;28;20111;-67
2022/07/05 20:18:56;;;;;;;9.10;6.28;;;;;;;26.18;49.07;94600.13;4142565;28;20049;-66
2022/07/05 20:20:59;;;;;;;9.95;6.78;;;;;;;26.12;49.26;94615.41;4145369;28;20494;-65
2022/07/05 20:23:01;;;;;;;11.00;6.88;;;;;;;25.93;52.46;94623.06;4133607;28;20049;-66
2022/07/05 20:25:03;;;;;;;14.15;6.80;;;;;;;25.57;55.14;94654.91;4128864;28;20058;-68
2022/07/05 20:27:05;;;;;;;12.65;7.28;;;;;;;25.24;57.23;94656.72;4127650;28;20086;-66
2022/07/05 20:29:11;;;;;;;10.32;7.25;;;;;;;24.89;58.07;94652.56;4136579;28;20050;-66
2022/07/05 20:31:13;;;;;;;11.15;7.15;;;;;;;24.47;59.78;94654.91;4144855;28;20046;-66
2022/07/05 20:33:17;;;;;;;11.45;8.07;;;;;;;24.36;59.93;94675.38;4131275;28;20046;-67
2022/07/05 20:35:19;;;;;;;;;;;;;;;24.10;61.17;94666.16;4142797;28;20054;-67
2022/07/05 20:37:20;;;;;;;11.93;7.35;;;;;;;23.98;61.50;94678.81;4133043;28;19975;-66
2022/07/05 20:39:22;;;;;;;8.98;7.20;;;;;;;23.98;61.69;94679.63;4138954;28;20065;-66
2022/07/05 20:41:24;;;;;;;9.30;8.02;;;;;;;23.85;62.00;94679.94;4132318;28;20069;-66
2022/07/05 20:43:28;;;;;;;10.73;7.75;;;;;;;23.78;62.43;94684.66;4130240;28;20137;-68
2022/07/05 20:45:30;;;;;;;13.88;8.68;;;;;;;23.69;62.97;94695.69;4143153;28;20054;-66
2022/07/05 20:47:32;;;;;;;9.45;7.78;;;;;;;23.63;62.71;94693.97;4144842;28;20054;-64
2022/07/05 20:49:34;;;;;;;11.02;8.90;;;;;;;23.50;63.08;94704.97;4141979;28;20046;-67
2022/07/05 20:51:35;;;;;;;13.32;7.95;;;;;;;23.36;63.36;94700.97;4144858;28;20053;-66
2022/07/05 20:53:37;;;;;;;12.05;8.02;;;;;;;23.41;64.37;94706.44;4134116;28;20120;-65
2022/07/05 20:55:39;;;;;;;10.15;8.68;;;;;;;23.46;64.15;94709.19;4141595;28;20057;-66
2022/07/05 20:57:41;;;;;;;10.73;8.85;;;;;;;23.43;64.00;94715.03;4156469;28;20084;-67
2022/07/05 20:59:43;;;;;;;12.38;8.10;;;;;;;23.39;64.41;94711.19;4144967;28;20485;-66
2022/07/05 21:01:45;;;;;;;9.13;7.78;;;;;;;23.40;63.92;94723.50;4136072;28;20058;-66
2022/07/05 21:03:48;;;;;;;8.43;7.45;;;;;;;23.41;63.83;94723.28;4127109;28;20049;-65
2022/07/05 21:05:50;;;;;;;9.25;7.95;;;;;;;23.43;63.93;94731.06;4129169;28;20072;-64